Terminal Aerodrome Forecast
Issued by NWS

Home | Current Version | Previous Version | Graphics & Text | Print | Product List | Glossary On
Versions: 1 2 3 4 5 6 7 8 9 10 11 12 13 14 15 16 17 18 19 20 21 22 23 24
000
FTUS41 KCLE 152148 AAA
TAFFDY
TAF AMD
KFDY 152148Z 1522/1618 22009KT 6SM -RA BR SCT018 OVC070
      TEMPO 1522/1602 3SM -SHRA BKN018
     FM160200 28008KT 2SM RA BR SCT007 OVC010
      TEMPO 1604/1606 4SM -RA BR
     FM160600 31008KT 4SM BR OVC010
     FM161300 32013KT P6SM OVC015
     FM161700 32013KT P6SM BKN030=

USA.gov is the U.S. government's official web portal to all federal, state and local government web resources and services.